createdAt,value
2022-09-25T08:39:08.959Z,59.995998
2022-09-25T08:40:18.622Z,59.995998
2022-09-25T08:41:26.183Z,59.983002
2022-09-25T08:42:33.732Z,60.021
2022-09-25T08:43:43.351Z,60.034
2022-09-25T08:45:16.962Z,60.164001
2022-09-25T08:46:02.611Z,60.146999
2022-09-25T08:47:12.969Z,60.077
2022-09-25T08:48:19.677Z,60.026001
2022-09-25T08:49:29.285Z,60.021
2022-09-25T08:50:36.880Z,60.021
2022-09-25T08:51:44.431Z,59.949001
2022-09-25T08:52:54.027Z,59.986
2022-09-25T08:54:02.700Z,59.984001
2022-09-25T08:55:12.369Z,59.93
2022-09-25T08:56:21.868Z,59.854
2022-09-25T08:57:30.501Z,59.832001
2022-09-25T08:58:40.042Z,59.805
2022-09-25T08:59:47.623Z,59.789001
2022-09-25T09:00:55.161Z,59.708
2022-09-25T09:02:04.703Z,59.687
2022-09-25T09:03:13.239Z,59.435001
2022-09-25T09:04:22.840Z,59.573002
2022-09-25T09:05:31.410Z,59.553001
2022-09-25T09:06:39.963Z,59.300999
2022-09-25T09:07:50.526Z,59.240002
2022-09-25T09:08:58.248Z,59.153999
2022-09-25T09:10:06.868Z,59.173
2022-09-25T09:11:16.460Z,59.117001
2022-09-25T09:12:26.031Z,59.167
2022-09-25T09:13:35.657Z,59.172001
2022-09-25T09:14:45.242Z,59.117001
2022-09-25T09:15:54.116Z,59.098
2022-09-25T09:17:02.837Z,58.990002
2022-09-25T09:18:11.400Z,58.965
2022-09-25T09:19:19.988Z,58.903999
2022-09-25T09:20:29.626Z,58.876999
2022-09-25T09:21:39.207Z,58.824001
2022-09-25T09:22:47.755Z,58.877998
2022-09-25T09:23:57.323Z,58.766998
2022-09-25T09:25:05.882Z,58.703999
2022-09-25T09:26:15.487Z,58.606998
2022-09-25T09:27:24.213Z,58.591
2022-09-25T09:28:31.779Z,58.620998
2022-09-25T09:29:41.410Z,58.632
2022-09-25T09:30:49.981Z,58.637001
2022-09-25T09:31:58.520Z,58.626999
2022-09-25T09:33:08.143Z,58.488998
2022-09-25T09:34:16.745Z,58.417999
2022-09-25T09:35:29.934Z,58.424
2022-09-25T09:36:36.964Z,58.383999
2022-09-25T09:37:44.551Z,58.425999
2022-09-25T09:38:52.137Z,58.328999
2022-09-25T09:40:01.727Z,58.249001
2022-09-25T09:41:11.293Z,58.237
2022-09-25T09:42:19.997Z,58.243
2022-09-25T09:43:27.635Z,58.203999
2022-09-25T09:44:36.239Z,58.166
2022-09-25T09:45:45.814Z,58.131001
2022-09-25T09:46:53.382Z,58.083
2022-09-25T09:48:01.981Z,58.039001
2022-09-25T09:49:10.557Z,57.981998
2022-09-25T09:50:19.128Z,57.933998
2022-09-25T09:51:28.776Z,57.963001
2022-09-25T09:52:36.399Z,57.955002
2022-09-25T09:53:43.925Z,57.902
2022-09-25T09:54:53.488Z,57.895
2022-09-25T09:56:03.053Z,57.951
2022-09-25T09:57:12.620Z,58.004002
2022-09-25T09:58:21.344Z,57.974998
2022-09-25T09:59:30.937Z,57.852001
2022-09-25T10:00:40.869Z,57.729
2022-09-25T10:01:49.499Z,57.638
2022-09-25T10:02:58.029Z,57.632
2022-09-25T10:04:07.710Z,57.562
2022-09-25T10:05:17.202Z,57.534
2022-09-25T10:06:26.261Z,57.501999
2022-09-25T10:07:35.056Z,57.471001
2022-09-25T10:08:43.782Z,57.332001
2022-09-25T10:09:53.339Z,57.248001
2022-09-25T10:11:00.899Z,57.023998
2022-09-25T10:12:08.423Z,56.838001
2022-09-25T10:13:18.110Z,56.660999
2022-09-25T10:14:26.861Z,56.827999
2022-09-25T10:15:36.472Z,56.632
2022-09-25T10:16:45.973Z,56.445999
2022-09-25T10:17:54.501Z,56.558998
2022-09-25T10:19:04.103Z,56.476002
2022-09-25T10:20:11.731Z,56.363998
2022-09-25T10:21:21.334Z,56.432999
2022-09-25T10:22:30.913Z,56.535
2022-09-25T10:23:39.487Z,56.457001
2022-09-25T10:24:48.063Z,56.323002
2022-09-25T10:25:57.599Z,56.353001
2022-09-25T10:27:06.186Z,56.377998
2022-09-25T10:28:15.761Z,56.433998
2022-09-25T10:29:24.386Z,56.543999
2022-09-25T10:30:31.950Z,56.665001
2022-09-25T10:31:41.604Z,56.811001
2022-09-25T10:32:56.551Z,56.919998
2022-09-25T10:34:01.737Z,56.974998
2022-09-25T10:35:11.383Z,56.884998
2022-09-25T10:36:20.149Z,56.860001
2022-09-25T10:37:29.711Z,56.812
2022-09-25T10:38:37.275Z,56.784
2022-09-25T10:39:47.232Z,56.771999
2022-09-25T10:40:56.515Z,56.917
2022-09-25T10:42:06.009Z,57
2022-09-25T10:43:15.049Z,57.076
2022-09-25T10:44:23.846Z,57.147999
2022-09-25T10:45:32.783Z,57.167
2022-09-25T10:46:42.347Z,57.134998
2022-09-25T10:47:49.920Z,57.173
2022-09-25T10:48:57.464Z,57.146999
2022-09-25T10:50:07.028Z,57.178001
2022-09-25T10:51:17.428Z,57.189999
2022-09-25T10:52:27.194Z,57.252998
2022-09-25T10:53:37.149Z,57.314999
2022-09-25T10:54:46.718Z,57.356998
2022-09-25T10:55:56.517Z,57.351002
2022-09-25T10:57:05.419Z,57.381001
2022-09-25T10:58:13.030Z,57.368
2022-09-25T10:59:22.812Z,57.405998
2022-09-25T11:00:31.604Z,57.375
2022-09-25T11:01:40.672Z,57.397999
2022-09-25T11:02:49.956Z,57.397999
2022-09-25T11:03:59.462Z,57.391998
2022-09-25T11:05:09.167Z,57.441002
2022-09-25T11:06:17.768Z,57.323002
2022-09-25T11:07:25.302Z,57.310001
2022-09-25T11:08:34.863Z,57.285
2022-09-25T11:09:43.524Z,57.233002
2022-09-25T11:10:53.233Z,57.187
2022-09-25T11:12:01.786Z,57.140999
2022-09-25T11:13:10.426Z,57.167999
2022-09-25T11:14:19.974Z,57.171001
2022-09-25T11:15:28.041Z,57.165001
2022-09-25T11:16:35.596Z,57.139999
2022-09-25T11:17:45.232Z,57.157001
2022-09-25T11:18:53.917Z,57.168999
2022-09-25T11:20:04.525Z,57.175999
2022-09-25T11:21:14.684Z,57.187
2022-09-25T11:22:24.277Z,57.187
2022-09-25T11:23:33.894Z,57.182999
2022-09-25T11:24:41.433Z,57.202
2022-09-25T11:25:49.683Z,57.229
2022-09-25T11:26:59.392Z,57.279999
2022-09-25T11:28:09.055Z,57.271999
2022-09-25T11:29:17.735Z,57.316002
2022-09-25T11:30:26.237Z,57.284
2022-09-25T11:31:36.407Z,57.306
2022-09-25T11:32:50.316Z,57.34
2022-09-25T11:33:56.594Z,57.280998
2022-09-25T11:35:06.203Z,57.286999
2022-09-25T11:36:15.774Z,57.348
2022-09-25T11:37:25.413Z,57.375999
2022-09-25T11:38:33.943Z,57.397999
2022-09-25T11:39:42.514Z,57.448002
2022-09-25T11:40:53.114Z,57.458
2022-09-25T11:42:02.088Z,57.458
2022-09-25T11:43:11.709Z,57.470001
2022-09-25T11:44:19.805Z,57.424
2022-09-25T11:45:29.230Z,57.390999
2022-09-25T11:46:38.299Z,57.403999
2022-09-25T11:47:47.486Z,57.366001
2022-09-25T11:48:57.074Z,57.384998
2022-09-25T11:50:07.442Z,57.289001
2022-09-25T11:51:16.893Z,57.27
2022-09-25T11:52:26.506Z,57.202999
2022-09-25T11:53:36.122Z,57.050999
2022-09-25T11:54:45.733Z,56.986
2022-09-25T11:55:55.265Z,56.960999
2022-09-25T11:57:04.206Z,56.988998
2022-09-25T11:58:13.906Z,56.943001
2022-09-25T11:59:22.422Z,56.943001
2022-09-25T12:00:31.005Z,56.943001
2022-09-25T12:01:40.726Z,56.979
2022-09-25T12:02:49.572Z,56.929001
2022-09-25T12:03:59.146Z,56.91
2022-09-25T12:05:08.890Z,56.863998
2022-09-25T12:06:18.505Z,56.826
2022-09-25T12:07:28.075Z,56.838001
2022-09-25T12:08:35.884Z,56.862999
2022-09-25T12:09:43.493Z,56.855999
2022-09-25T12:10:52.846Z,56.772999
2022-09-25T12:12:01.958Z,56.66
2022-09-25T12:13:11.550Z,56.602001
2022-09-25T12:14:20.151Z,56.551998
2022-09-25T12:15:28.758Z,56.583
2022-09-25T12:16:38.893Z,56.527
2022-09-25T12:17:46.443Z,56.558998
2022-09-25T12:18:55.158Z,56.527
2022-09-25T12:20:04.831Z,56.569
2022-09-25T12:21:13.520Z,56.530998
2022-09-25T12:22:22.023Z,56.5
2022-09-25T12:23:30.597Z,56.529999
2022-09-25T12:24:39.169Z,56.511002
2022-09-25T12:25:48.692Z,56.389999
2022-09-25T12:26:56.248Z,56.332001
2022-09-25T12:28:04.899Z,56.319
2022-09-25T12:29:14.446Z,56.299
2022-09-25T12:30:23.021Z,56.299
2022-09-25T12:31:31.551Z,56.285999
2022-09-25T12:32:40.095Z,56.183998
2022-09-25T12:33:48.646Z,56.208
2022-09-25T12:34:58.192Z,56.214001
2022-09-25T12:36:05.737Z,56.201
2022-09-25T12:37:13.291Z,56.174
2022-09-25T12:38:22.841Z,56.131001
2022-09-25T12:39:31.394Z,56.112999
2022-09-25T12:40:41.074Z,56.063
2022-09-25T12:41:50.608Z,56.037998
2022-09-25T12:42:59.139Z,56.075001
2022-09-25T12:44:08.705Z,56.075001
2022-09-25T12:45:16.347Z,56.005001
2022-09-25T12:46:24.984Z,55.973
2022-09-25T12:47:34.603Z,55.948002
2022-09-25T12:48:43.192Z,55.984001
2022-09-25T12:49:51.812Z,55.978001
2022-09-25T12:51:05.104Z,55.966
2022-09-25T12:52:09.998Z,55.952999
2022-09-25T12:53:19.562Z,55.869999
